createdAt,value
2023-02-08T00:00:44.583Z,100.00
2023-02-08T00:03:11.586Z,100.00
2023-02-08T00:05:38.620Z,100.00
2023-02-08T00:08:06.167Z,100.00
2023-02-08T00:10:32.983Z,100.00
2023-02-08T00:13:00.010Z,100.00
2023-02-08T00:15:26.796Z,100.00
2023-02-08T00:17:53.565Z,100.00
2023-02-08T00:20:20.458Z,100.00
2023-02-08T00:22:47.273Z,100.00
2023-02-08T00:25:14.028Z,100.00
2023-02-08T00:27:40.893Z,100.00
2023-02-08T00:30:08.520Z,100.00
2023-02-08T00:32:35.356Z,100.00
2023-02-08T00:35:02.143Z,100.00
2023-02-08T00:37:28.898Z,100.00
2023-02-08T00:39:55.754Z,100.00
2023-02-08T00:42:23.104Z,100.00
2023-02-08T00:44:49.855Z,100.00
2023-02-08T00:47:16.625Z,100.00
2023-02-08T00:49:43.387Z,100.00
2023-02-08T00:52:10.172Z,100.00
2023-02-08T00:54:37.069Z,100.00
2023-02-08T00:57:03.915Z,100.00
2023-02-08T00:59:30.730Z,100.00
2023-02-08T01:01:57.526Z,100.00
2023-02-08T01:04:24.474Z,100.00
2023-02-08T01:06:51.381Z,100.00
2023-02-08T01:09:18.215Z,100.00
2023-02-08T01:11:45.017Z,100.00
2023-02-08T01:14:11.736Z,100.00
2023-02-08T01:16:38.976Z,100.00
2023-02-08T01:19:06.313Z,100.00
2023-02-08T01:21:35.710Z,100.00
2023-02-08T01:24:02.846Z,100.00
2023-02-08T01:26:30.492Z,100.00
2023-02-08T01:28:57.479Z,100.00
2023-02-08T01:31:28.097Z,100.00
2023-02-08T01:33:56.173Z,100.00
2023-02-08T01:36:23.450Z,100.00
2023-02-08T01:38:50.586Z,100.00
2023-02-08T01:41:26.378Z,100.00
2023-02-08T01:44:03.547Z,100.00
2023-02-08T01:46:31.580Z,100.00
2023-02-08T01:49:02.952Z,100.00
2023-02-08T01:51:31.763Z,100.00
2023-02-08T01:54:01.026Z,100.00
2023-02-08T01:56:34.218Z,100.00
2023-02-08T01:59:05.049Z,100.00
2023-02-08T02:01:32.143Z,100.00
2023-02-08T02:04:05.015Z,100.00
2023-02-08T02:06:35.968Z,100.00
2023-02-08T02:09:05.810Z,100.00
2023-02-08T02:11:32.795Z,100.00
2023-02-08T02:14:01.535Z,100.00
2023-02-08T02:16:28.397Z,100.00
2023-02-08T02:18:55.249Z,100.00
2023-02-08T02:21:44.791Z,100.00
2023-02-08T02:24:39.052Z,100.00
2023-02-08T02:27:05.770Z,100.00
2023-02-08T02:29:47.608Z,100.00
2023-02-08T02:32:45.230Z,100.00
2023-02-08T02:35:30.570Z,100.00
2023-02-08T02:38:09.397Z,100.00
2023-02-08T02:40:36.143Z,100.00
2023-02-08T02:43:21.462Z,100.00
2023-02-08T02:45:59.666Z,100.00
2023-02-08T02:48:38.611Z,100.00
2023-02-08T02:51:18.336Z,100.00
2023-02-08T02:53:54.638Z,100.00
2023-02-08T02:56:31.088Z,100.00
2023-02-08T02:59:02.619Z,100.00
2023-02-08T03:01:30.315Z,100.00
2023-02-08T03:03:57.623Z,100.00
2023-02-08T03:06:53.362Z,100.00
2023-02-08T03:09:20.096Z,100.00
2023-02-08T03:11:57.200Z,100.00
2023-02-08T03:14:50.263Z,100.00
2023-02-08T03:17:38.356Z,100.00
2023-02-08T03:20:14.956Z,100.00
2023-02-08T03:22:58.678Z,100.00
2023-02-08T03:25:30.309Z,100.00
2023-02-08T03:28:09.865Z,100.00
2023-02-08T03:30:36.718Z,100.00
2023-02-08T03:33:06.954Z,100.00
2023-02-08T03:35:49.503Z,100.00
2023-02-08T03:38:18.735Z,100.00
2023-02-08T03:40:49.924Z,100.00
2023-02-08T03:43:19.629Z,100.00
2023-02-08T03:45:58.259Z,100.00
2023-02-08T03:48:25.563Z,100.00
2023-02-08T03:50:53.924Z,100.00
2023-02-08T03:53:22.740Z,100.00
2023-02-08T03:55:51.642Z,100.00
2023-02-08T03:58:22.270Z,100.00
2023-02-08T04:00:52.534Z,100.00
2023-02-08T04:03:24.744Z,100.00
2023-02-08T04:05:51.884Z,100.00
2023-02-08T04:08:19.312Z,100.00
2023-02-08T04:10:47.904Z,100.00
2023-02-08T04:13:14.906Z,100.00
2023-02-08T04:15:41.728Z,100.00
2023-02-08T04:18:08.585Z,100.00
2023-02-08T04:20:35.336Z,100.00
2023-02-08T04:23:02.110Z,100.00
2023-02-08T04:25:28.872Z,100.00
2023-02-08T04:27:55.627Z,100.00
2023-02-08T04:30:22.384Z,100.00
2023-02-08T04:32:49.102Z,100.00
2023-02-08T04:35:15.948Z,100.00
2023-02-08T04:37:42.722Z,100.00
2023-02-08T04:40:10.288Z,100.00
2023-02-08T04:42:36.968Z,100.00
2023-02-08T04:45:03.784Z,100.00
2023-02-08T04:47:30.424Z,100.00
2023-02-08T04:49:57.047Z,100.00
2023-02-08T04:52:23.644Z,100.00
2023-02-08T04:54:50.255Z,100.00
2023-02-08T04:57:16.923Z,100.00
2023-02-08T04:59:43.545Z,100.00
2023-02-08T05:02:10.197Z,100.00
2023-02-08T05:04:36.768Z,100.00
2023-02-08T05:07:03.885Z,100.00
2023-02-08T05:09:37.919Z,100.00
2023-02-08T05:12:04.698Z,100.00
2023-02-08T05:14:31.284Z,100.00
2023-02-08T05:16:58.802Z,100.00
2023-02-08T05:19:25.488Z,100.00
2023-02-08T05:21:52.135Z,100.00
2023-02-08T05:24:18.821Z,100.00
2023-02-08T05:26:45.462Z,100.00
2023-02-08T05:29:12.082Z,100.00
2023-02-08T05:31:38.797Z,100.00
2023-02-08T05:34:05.522Z,100.00
2023-02-08T05:36:32.364Z,100.00
2023-02-08T05:38:59.042Z,100.00
2023-02-08T05:41:25.728Z,100.00
2023-02-08T05:43:52.315Z,100.00
2023-02-08T05:46:19.765Z,100.00
2023-02-08T05:48:46.479Z,100.00
2023-02-08T05:51:13.115Z,100.00
2023-02-08T05:53:39.995Z,100.00
2023-02-08T05:56:06.785Z,100.00
2023-02-08T05:58:34.118Z,100.00
2023-02-08T06:01:00.756Z,100.00
2023-02-08T06:03:27.509Z,100.00
2023-02-08T06:05:54.154Z,100.00
2023-02-08T06:08:20.942Z,100.00
2023-02-08T06:10:48.905Z,100.00
2023-02-08T06:13:16.100Z,100.00
2023-02-08T06:15:42.913Z,100.00
2023-02-08T06:18:09.537Z,100.00
2023-02-08T06:20:36.510Z,100.00
2023-02-08T06:23:03.290Z,100.00
2023-02-08T06:25:29.913Z,100.00
2023-02-08T06:27:57.502Z,100.00
2023-02-08T06:30:24.266Z,100.00
2023-02-08T06:32:50.898Z,100.00
2023-02-08T06:35:17.716Z,100.00
2023-02-08T06:37:44.698Z,100.00
2023-02-08T06:40:11.377Z,100.00
2023-02-08T06:42:38.182Z,100.00
2023-02-08T06:45:04.988Z,100.00
2023-02-08T06:47:31.970Z,100.00
2023-02-08T06:49:58.634Z,100.00
2023-02-08T06:52:25.244Z,100.00
2023-02-08T06:54:51.856Z,100.00
2023-02-08T06:57:18.604Z,100.00
2023-02-08T06:59:45.568Z,100.00
2023-02-08T07:02:19.493Z,100.00
2023-02-08T07:04:46.384Z,100.00
2023-02-08T07:07:13.805Z,100.00
2023-02-08T07:09:40.476Z,100.00
2023-02-08T07:12:07.563Z,100.00
2023-02-08T07:14:35.171Z,100.00
2023-02-08T07:17:02.292Z,100.00
2023-02-08T07:19:29.041Z,100.00
2023-02-08T07:21:56.296Z,100.00
2023-02-08T07:24:23.565Z,100.00
2023-02-08T07:26:50.219Z,100.00
2023-02-08T07:29:16.821Z,100.00
2023-02-08T07:31:43.508Z,100.00
2023-02-08T07:34:10.232Z,100.00
2023-02-08T07:36:36.910Z,100.00
2023-02-08T07:39:03.819Z,100.00
2023-02-08T07:41:30.552Z,100.00
2023-02-08T07:43:57.185Z,100.00
2023-02-08T07:46:23.898Z,100.00
2023-02-08T07:48:50.675Z,100.00
2023-02-08T07:51:17.320Z,100.00
2023-02-08T07:53:44.000Z,100.00
2023-02-08T07:56:10.920Z,100.00
2023-02-08T07:58:37.766Z,100.00
2023-02-08T08:01:16.099Z,100.00
2023-02-08T08:03:48.902Z,100.00
2023-02-08T08:06:15.637Z,100.00
2023-02-08T08:08:43.386Z,100.00
2023-02-08T08:11:09.984Z,100.00
2023-02-08T08:13:36.591Z,100.00
2023-02-08T08:16:03.320Z,100.00
2023-02-08T08:18:30.041Z,100.00
2023-02-08T08:20:56.657Z,100.00
2023-02-08T08:23:23.982Z,100.00
2023-02-08T08:25:50.610Z,100.00
2023-02-08T08:28:17.436Z,100.00
2023-02-08T08:30:44.884Z,100.00
2023-02-08T08:33:12.228Z,100.00
2023-02-08T08:35:38.899Z,100.00
2023-02-08T08:38:05.579Z,100.00
2023-02-08T08:40:32.433Z,100.00
2023-02-08T08:42:59.099Z,100.00
2023-02-08T08:45:25.730Z,100.00
2023-02-08T08:47:52.459Z,100.00
2023-02-08T08:50:19.129Z,100.00
2023-02-08T08:52:45.806Z,100.00
2023-02-08T08:55:12.395Z,100.00
2023-02-08T08:57:39.065Z,100.00
2023-02-08T09:00:06.130Z,100.00
2023-02-08T09:02:32.874Z,100.00
2023-02-08T09:05:00.593Z,100.00
2023-02-08T09:07:27.274Z,100.00
2023-02-08T09:09:53.942Z,100.00
2023-02-08T09:12:20.631Z,100.00
2023-02-08T09:14:47.334Z,100.00
2023-02-08T09:17:13.954Z,100.00
2023-02-08T09:19:40.667Z,100.00
2023-02-08T09:22:07.665Z,100.00
2023-02-08T09:24:34.779Z,100.00
2023-02-08T09:27:01.514Z,100.00
2023-02-08T09:29:30.308Z,100.00
2023-02-08T09:31:57.359Z,100.00
2023-02-08T09:34:24.225Z,100.00
2023-02-08T09:36:50.920Z,100.00
2023-02-08T09:39:19.226Z,100.00
2023-02-08T09:42:04.622Z,100.00
2023-02-08T09:44:50.001Z,100.00
2023-02-08T09:47:20.481Z,100.00
2023-02-08T09:50:07.371Z,100.00
2023-02-08T09:52:54.245Z,100.00
2023-02-08T09:55:39.124Z,100.00
2023-02-08T09:58:16.190Z,100.00
2023-02-08T10:00:44.852Z,100.00
2023-02-08T10:03:27.077Z,100.00
2023-02-08T10:05:53.840Z,100.00
2023-02-08T10:08:20.733Z,100.00
2023-02-08T10:10:47.466Z,100.00
2023-02-08T10:13:19.571Z,100.00
2023-02-08T10:15:48.929Z,100.00
2023-02-08T10:18:15.616Z,100.00
2023-02-08T10:21:08.529Z,100.00
2023-02-08T10:23:55.466Z,100.00
2023-02-08T10:26:22.110Z,100.00
2023-02-08T10:28:52.485Z,100.00
2023-02-08T10:31:37.983Z,100.00
2023-02-08T10:34:12.007Z,100.00
2023-02-08T10:36:42.998Z,100.00
2023-02-08T10:39:26.733Z,100.00
2023-02-08T10:41:53.905Z,100.00
2023-02-08T10:44:41.745Z,100.00
2023-02-08T10:47:17.422Z,100.00
2023-02-08T10:50:02.187Z,100.00
2023-02-08T10:52:28.926Z,100.00
2023-02-08T10:54:57.894Z,100.00
2023-02-08T10:57:26.590Z,100.00
2023-02-08T11:00:01.480Z,100.00
2023-02-08T11:02:35.981Z,100.00
2023-02-08T11:05:04.496Z,100.00
2023-02-08T11:07:31.675Z,100.00
2023-02-08T11:10:21.249Z,100.00
2023-02-08T11:12:55.524Z,100.00
2023-02-08T11:15:23.998Z,100.00
2023-02-08T11:17:55.411Z,100.00
2023-02-08T11:20:25.140Z,100.00
2023-02-08T11:22:51.840Z,100.00
2023-02-08T11:25:33.851Z,100.00
2023-02-08T11:28:01.861Z,100.00
2023-02-08T11:30:28.575Z,100.00
2023-02-08T11:33:28.072Z,100.00
2023-02-08T11:36:02.800Z,100.00
2023-02-08T11:38:30.890Z,100.00
2023-02-08T11:40:59.583Z,100.00
2023-02-08T11:43:28.005Z,100.00
2023-02-08T11:45:55.701Z,100.00
2023-02-08T11:48:25.296Z,100.00
2023-02-08T11:50:56.708Z,100.00
2023-02-08T11:53:40.678Z,100.00
2023-02-08T11:56:15.640Z,99.08
2023-02-08T11:58:42.537Z,97.97
2023-02-08T12:01:20.683Z,96.24
2023-02-08T12:03:50.371Z,93.46
2023-02-08T12:06:19.913Z,95.36
2023-02-08T12:09:03.055Z,91.73
2023-02-08T12:11:43.727Z,87.40
2023-02-08T12:14:16.517Z,86.60
2023-02-08T12:16:43.147Z,87.77
2023-02-08T12:19:28.659Z,89.25
2023-02-08T12:22:03.958Z,89.94
2023-02-08T12:24:36.488Z,85.13
2023-02-08T12:27:03.192Z,87.05
2023-02-08T12:29:47.454Z,87.02
2023-02-08T12:32:35.036Z,81.26
2023-02-08T12:35:07.700Z,84.99
2023-02-08T12:38:15.696Z,84.11
2023-02-08T12:40:54.087Z,83.90
2023-02-08T12:43:23.563Z,86.39
2023-02-08T12:46:08.881Z,79.40
2023-02-08T12:48:47.850Z,76.71
2023-02-08T12:51:14.427Z,77.84
2023-02-08T12:53:46.961Z,78.30
2023-02-08T12:56:17.213Z,77.11
2023-02-08T12:59:11.747Z,81.48
2023-02-08T13:01:44.946Z,83.48
2023-02-08T13:04:21.019Z,86.91
2023-02-08T13:06:50.163Z,86.72
2023-02-08T13:09:16.822Z,84.99
2023-02-08T13:11:55.779Z,81.29
2023-02-08T13:14:22.375Z,81.05
2023-02-08T13:16:52.347Z,80.77
2023-02-08T13:19:18.990Z,78.41
2023-02-08T13:21:46.104Z,78.86
2023-02-08T13:24:21.856Z,79.82
2023-02-08T13:26:48.654Z,79.13
2023-02-08T13:29:19.668Z,81.69
2023-02-08T13:31:56.884Z,81.84
2023-02-08T13:34:29.489Z,83.90
2023-02-08T13:36:59.785Z,83.57
2023-02-08T13:39:43.424Z,85.98
2023-02-08T13:42:28.885Z,84.11
2023-02-08T13:44:57.210Z,82.00
2023-02-08T13:47:28.809Z,79.34
2023-02-08T13:49:55.477Z,76.37
2023-02-08T13:52:46.850Z,71.98
2023-02-08T13:55:33.756Z,71.62
2023-02-08T13:58:04.760Z,72.65
2023-02-08T14:00:31.383Z,71.46
2023-02-08T14:03:18.261Z,75.23
2023-02-08T14:05:50.552Z,77.21
2023-02-08T14:08:29.172Z,77.24
2023-02-08T14:11:05.005Z,78.25
2023-02-08T14:13:35.388Z,80.35
2023-02-08T14:16:20.766Z,80.18
2023-02-08T14:18:51.978Z,81.91
2023-02-08T14:21:28.218Z,83.31
2023-02-08T14:24:03.111Z,84.35
2023-02-08T14:26:30.231Z,85.20
2023-02-08T14:28:58.608Z,85.97
2023-02-08T14:31:36.189Z,86.26
2023-02-08T14:34:03.206Z,85.96
2023-02-08T14:36:35.720Z,84.00
2023-02-08T14:39:21.031Z,84.07
2023-02-08T14:41:49.671Z,83.24
2023-02-08T14:44:34.763Z,82.57
2023-02-08T14:47:01.655Z,80.96
2023-02-08T14:49:35.634Z,80.34
2023-02-08T14:52:10.892Z,79.13
2023-02-08T14:54:41.919Z,79.53
2023-02-08T14:57:21.232Z,79.32
2023-02-08T14:59:48.169Z,75.63
2023-02-08T15:02:22.442Z,76.39
2023-02-08T15:04:49.208Z,75.44
2023-02-08T15:07:15.866Z,74.25
2023-02-08T15:09:43.055Z,74.82
2023-02-08T15:12:18.970Z,73.98
2023-02-08T15:14:46.271Z,76.34
2023-02-08T15:17:25.043Z,74.29
2023-02-08T15:19:52.481Z,72.64
2023-02-08T15:22:19.172Z,73.53
2023-02-08T15:24:56.606Z,74.29
2023-02-08T15:27:24.732Z,73.55
2023-02-08T15:29:51.921Z,74.12
2023-02-08T15:32:20.514Z,74.76
2023-02-08T15:34:50.336Z,74.68
2023-02-08T15:37:17.960Z,77.19
2023-02-08T15:39:46.161Z,78.07
2023-02-08T15:42:17.138Z,77.28
2023-02-08T15:44:44.656Z,80.25
2023-02-08T15:47:25.564Z,81.29
2023-02-08T15:49:53.820Z,79.56
2023-02-08T15:52:22.052Z,78.20
2023-02-08T15:54:49.424Z,80.28
2023-02-08T15:57:31.339Z,79.00
2023-02-08T15:59:58.304Z,80.68
2023-02-08T16:02:32.510Z,81.25
2023-02-08T16:05:00.276Z,82.16
2023-02-08T16:07:40.514Z,81.97
2023-02-08T16:10:09.794Z,83.09
2023-02-08T16:12:36.921Z,84.64
2023-02-08T16:15:03.765Z,84.31
2023-02-08T16:17:33.620Z,84.18
2023-02-08T16:20:00.582Z,84.92
2023-02-08T16:22:32.312Z,84.55
2023-02-08T16:25:17.708Z,85.18
2023-02-08T16:27:48.109Z,85.87
2023-02-08T16:30:19.924Z,87.81
2023-02-08T16:32:46.946Z,89.31
2023-02-08T16:35:22.374Z,89.99
2023-02-08T16:37:54.856Z,90.32
2023-02-08T16:40:40.093Z,91.75
2023-02-08T16:43:31.866Z,92.72
2023-02-08T16:46:11.424Z,94.58
2023-02-08T16:48:39.362Z,96.04
2023-02-08T16:51:07.653Z,98.10
2023-02-08T16:53:41.989Z,100.00
2023-02-08T16:56:10.179Z,100.00
2023-02-08T16:58:37.915Z,100.00
2023-02-08T17:01:04.921Z,100.00
2023-02-08T17:03:32.854Z,100.00
2023-02-08T17:06:00.757Z,100.00
2023-02-08T17:08:27.941Z,100.00
2023-02-08T17:10:59.423Z,100.00
2023-02-08T17:13:29.204Z,100.00
2023-02-08T17:15:56.185Z,100.00
2023-02-08T17:18:22.925Z,100.00
2023-02-08T17:20:49.899Z,100.00
2023-02-08T17:23:17.356Z,100.00
2023-02-08T17:25:44.772Z,100.00
2023-02-08T17:28:15.766Z,100.00
2023-02-08T17:30:44.349Z,100.00
2023-02-08T17:33:18.631Z,100.00
2023-02-08T17:35:52.166Z,100.00
2023-02-08T17:38:19.980Z,100.00
2023-02-08T17:40:48.489Z,100.00
2023-02-08T17:43:15.862Z,100.00
2023-02-08T17:45:44.557Z,100.00
2023-02-08T17:48:13.808Z,100.00
2023-02-08T17:50:42.350Z,100.00
2023-02-08T17:53:10.333Z,100.00
2023-02-08T17:55:37.256Z,100.00
2023-02-08T17:58:07.549Z,100.00
2023-02-08T18:00:34.895Z,100.00
2023-02-08T18:03:03.228Z,100.00
2023-02-08T18:05:30.221Z,100.00
2023-02-08T18:07:57.372Z,100.00
2023-02-08T18:10:25.008Z,100.00
2023-02-08T18:12:51.994Z,100.00
2023-02-08T18:15:20.327Z,100.00
2023-02-08T18:17:47.766Z,100.00
2023-02-08T18:20:16.036Z,100.00
2023-02-08T18:22:44.448Z,100.00
2023-02-08T18:25:12.691Z,100.00
2023-02-08T18:27:40.237Z,100.00
2023-02-08T18:30:07.712Z,100.00
2023-02-08T18:32:35.401Z,100.00
2023-02-08T18:35:04.303Z,100.00
2023-02-08T18:37:32.439Z,100.00
2023-02-08T18:40:00.714Z,100.00
2023-02-08T18:42:29.489Z,100.00
2023-02-08T18:44:57.179Z,100.00
2023-02-08T18:47:24.647Z,100.00
2023-02-08T18:49:54.958Z,100.00
2023-02-08T18:52:23.956Z,100.00
2023-02-08T18:54:51.730Z,100.00
2023-02-08T18:57:19.484Z,100.00
2023-02-08T18:59:50.182Z,100.00
2023-02-08T19:02:20.124Z,100.00
2023-02-08T19:04:48.019Z,100.00
2023-02-08T19:07:15.365Z,100.00
2023-02-08T19:09:47.938Z,100.00
2023-02-08T19:12:16.072Z,100.00
2023-02-08T19:14:44.883Z,100.00
2023-02-08T19:17:14.929Z,100.00
2023-02-08T19:19:42.781Z,100.00
2023-02-08T19:22:10.658Z,100.00
2023-02-08T19:24:38.087Z,100.00
2023-02-08T19:27:07.089Z,100.00
2023-02-08T19:29:35.261Z,100.00
2023-02-08T19:32:03.715Z,100.00
2023-02-08T19:34:31.796Z,100.00
2023-02-08T19:37:01.190Z,100.00
2023-02-08T19:39:28.988Z,100.00
2023-02-08T19:41:59.304Z,100.00
2023-02-08T19:44:30.601Z,100.00
2023-02-08T19:46:59.154Z,100.00
2023-02-08T19:49:27.947Z,100.00
2023-02-08T19:51:55.390Z,100.00
2023-02-08T19:54:23.301Z,100.00
2023-02-08T19:56:51.078Z,100.00
2023-02-08T19:59:19.574Z,100.00
2023-02-08T20:01:47.477Z,100.00
2023-02-08T20:04:15.406Z,100.00
2023-02-08T20:06:45.475Z,100.00
2023-02-08T20:09:13.901Z,100.00
2023-02-08T20:11:56.318Z,100.00
2023-02-08T20:14:28.116Z,100.00
2023-02-08T20:16:56.035Z,100.00
2023-02-08T20:19:23.767Z,100.00
2023-02-08T20:21:51.342Z,100.00
2023-02-08T20:24:18.886Z,100.00
2023-02-08T20:26:47.941Z,100.00
2023-02-08T20:29:15.891Z,100.00
2023-02-08T20:31:44.324Z,100.00
2023-02-08T20:34:13.944Z,100.00
2023-02-08T20:36:47.715Z,100.00
2023-02-08T20:39:20.405Z,100.00
2023-02-08T20:41:48.889Z,100.00
2023-02-08T20:44:19.976Z,100.00
2023-02-08T20:46:48.557Z,100.00
2023-02-08T20:49:20.071Z,100.00
2023-02-08T20:51:47.282Z,100.00
2023-02-08T20:54:14.088Z,100.00
2023-02-08T20:56:41.507Z,100.00
2023-02-08T20:59:09.695Z,100.00
2023-02-08T21:01:37.093Z,100.00
2023-02-08T21:04:05.307Z,100.00
2023-02-08T21:06:34.157Z,100.00
2023-02-08T21:09:04.218Z,100.00
2023-02-08T21:11:31.908Z,100.00
2023-02-08T21:13:59.279Z,100.00
2023-02-08T21:16:26.825Z,100.00
2023-02-08T21:18:54.070Z,100.00
2023-02-08T21:21:20.710Z,100.00
2023-02-08T21:23:47.528Z,100.00
2023-02-08T21:26:16.356Z,100.00
2023-02-08T21:28:44.018Z,100.00
2023-02-08T21:31:15.045Z,100.00
2023-02-08T21:33:42.682Z,100.00
2023-02-08T21:36:12.294Z,100.00
2023-02-08T21:38:39.041Z,100.00
2023-02-08T21:41:13.959Z,100.00
2023-02-08T21:43:40.927Z,100.00
2023-02-08T21:46:08.427Z,100.00
2023-02-08T21:48:55.056Z,100.00
2023-02-08T21:51:41.092Z,100.00
2023-02-08T21:54:36.734Z,100.00
2023-02-08T21:57:04.450Z,100.00
2023-02-08T21:59:31.910Z,100.00
2023-02-08T22:01:58.579Z,100.00
2023-02-08T22:04:25.585Z,100.00
2023-02-08T22:06:52.304Z,100.00
2023-02-08T22:09:19.947Z,100.00
2023-02-08T22:11:47.885Z,100.00
2023-02-08T22:14:14.469Z,100.00
2023-02-08T22:16:41.244Z,100.00
2023-02-08T22:19:08.108Z,100.00
2023-02-08T22:21:34.804Z,100.00
2023-02-08T22:24:01.569Z,100.00
2023-02-08T22:26:28.188Z,100.00
2023-02-08T22:28:54.866Z,100.00
2023-02-08T22:31:21.612Z,100.00
2023-02-08T22:33:48.371Z,100.00
2023-02-08T22:36:14.998Z,100.00
2023-02-08T22:38:41.703Z,100.00
2023-02-08T22:41:12.436Z,100.00
2023-02-08T22:43:39.385Z,100.00
2023-02-08T22:46:06.217Z,100.00
2023-02-08T22:48:33.736Z,100.00
2023-02-08T22:51:04.813Z,100.00
2023-02-08T22:53:31.542Z,100.00
2023-02-08T22:55:58.147Z,100.00
2023-02-08T22:58:24.819Z,100.00
2023-02-08T23:00:51.514Z,100.00
2023-02-08T23:03:18.139Z,100.00
2023-02-08T23:05:46.348Z,100.00
2023-02-08T23:08:14.320Z,100.00
2023-02-08T23:10:40.932Z,100.00
2023-02-08T23:13:07.934Z,100.00
2023-02-08T23:15:36.593Z,100.00
2023-02-08T23:18:03.489Z,100.00
2023-02-08T23:20:30.088Z,100.00
2023-02-08T23:22:56.733Z,100.00
2023-02-08T23:25:23.395Z,100.00
2023-02-08T23:27:50.066Z,100.00
2023-02-08T23:30:16.753Z,100.00
2023-02-08T23:32:43.880Z,100.00
2023-02-08T23:35:10.611Z,100.00
2023-02-08T23:37:37.317Z,100.00
2023-02-08T23:40:04.705Z,100.00
2023-02-08T23:42:31.349Z,100.00
2023-02-08T23:44:59.817Z,100.00
2023-02-08T23:47:27.320Z,100.00
2023-02-08T23:49:54.386Z,100.00
2023-02-08T23:52:21.102Z,100.00
2023-02-08T23:54:47.924Z,100.00
2023-02-08T23:57:14.893Z,100.00
2023-02-08T23:59:41.770Z,100.00
